Terminal Aerodrome Forecast
Issued by NWS

Home | Current Version | Previous Version | Text Only | Print | Product List | Glossary On
Versions: 1 2 3 4 5 6 7 8 9 10 11 12 13 14 15 16
000
FTUS42 KTAE 311700
TAFDHN
TAF
KDHN 311725Z 3118/0118 31012KT P6SM SCT060
     FM010300 32015G20KT P6SM BKN030
     FM011400 32020G25KT P6SM SKC=

USA.gov is the U.S. government's official web portal to all federal, state and local government web resources and services.